Latest Weather Observations for Lockhart River

IDQ60801

Issued at 11:02 pm EST Sunday 1 February 2015 (issued every 30 minutes, with the page automatically refreshed every 10 minutes)

About weather observations | Map of weather stations | Latest weather observations for QLD | Other Formats
Station Details ID: 028008 Name: LOCKHART RIVER AIRPORT Lat: -12.79 Lon: 143.30 Height: 18.5 m
Data from the previous 72 hours. | See also: Recent months at Lockhart River
Date/Time
EST
Temp
°C
App
Temp
°C
Dew
Point
Rel
Hum
%
Delta-T
°C
Wind Press
QNH
hPa
Press
MSL
hPa
Rain
since 9 am
mm
Dir
 
Spd
km/h
Gust
km/h
Spd
kts
Gust
kts
01/11:00pm 25.7 31.2 23.4 87 1.6 CALM 0 0 0 0 1009.0 - 0.0
01/10:30pm 25.7 31.2 23.4 87 1.6 CALM 0 0 0 0 1009.0 - 0.0
01/10:00pm 25.9 31.4 23.4 86 1.7 CALM 0 0 0 0 1008.8 - 0.0
01/09:30pm 25.7 30.9 22.8 84 2.0 CALM 0 0 0 0 1008.3 - 0.0
01/09:00pm 25.5 29.4 23.0 86 1.7 NNW 7 13 4 7 1008.3 1008.2 0.0
01/08:30pm 25.7 28.9 23.0 85 1.8 WNW 11 13 6 7 1007.8 - 0.0
01/08:00pm 25.8 29.4 23.1 85 1.8 NW 9 11 5 6 1007.6 - 0.0
01/07:30pm 26.1 29.6 22.8 82 2.2 N 9 11 5 6 1007.5 - 0.0
01/07:00pm 26.4 30.0 23.1 82 2.2 NNW 9 15 5 8 1007.4 - 0.0
01/06:30pm 26.9 30.6 23.2 80 2.5 W 9 17 5 9 1007.3 - 0.0
01/06:00pm 27.4 31.1 22.6 75 3.3 ESE 7 11 4 6 1006.5 1006.4 0.0
01/05:30pm 27.9 30.1 22.6 73 3.6 SSE 15 24 8 13 1006.6 - 0.0
01/05:00pm 28.0 32.0 23.1 74 3.3 WSW 7 15 4 8 1005.5 - 0.0
01/04:30pm 27.5 31.5 23.1 77 3.0 NW 7 15 4 8 1004.9 - 0.0
01/04:00pm 27.0 29.4 23.0 79 2.7 NW 15 20 8 11 1005.3 - 0.0
01/03:30pm 27.5 29.4 22.7 75 3.3 N 17 28 9 15 1005.0 - 0.0
01/03:00pm 31.4 34.7 24.5 67 4.8 NE 15 20 8 11 1004.8 1004.7 0.0
01/02:30pm 32.3 37.3 25.4 67 4.9 E 9 17 5 9 1005.1 - 0.0
01/02:00pm 33.2 38.1 24.4 60 6.2 E 6 11 3 6 1005.6 - 0.0
01/01:30pm 32.5 37.4 25.3 66 5.1 WSW 9 15 5 8 1005.9 - 0.0
01/01:00pm 32.2 35.8 23.7 61 5.9 N 11 15 6 8 1006.6 - 0.0
01/12:30pm 33.0 36.7 23.9 59 6.3 N 11 19 6 10 1007.1 - 0.0
01/12:00pm 32.0 34.4 23.0 59 6.2 NNW 15 22 8 12 1007.8 1007.7 0.0
01/11:30am 32.1 35.1 23.3 59 6.1 N 13 20 7 11 1008.1 - 0.0
01/11:00am 31.6 35.9 23.7 63 5.5 NW 7 15 4 8 1008.5 - 0.0
01/10:30am 30.8 35.6 24.2 68 4.6 W 6 9 3 5 1008.9 - 0.0
01/10:00am 29.8 35.0 24.2 72 3.9 WNW 4 13 2 7 1009.2 - 0.0
01/09:30am 28.5 33.8 24.9 81 2.5 SW 6 9 3 5 1009.3 - 0.0
01/09:00am 28.0 33.1 25.0 84 2.1 SSE 7 9 4 5 1009.3 1009.1 0.0
01/08:30am 27.8 32.8 24.8 84 2.1 S 7 9 4 5 1009.2 - 0.0
01/08:00am 27.8 32.0 24.8 84 2.1 SSE 11 13 6 7 1009.1 - 0.0
01/07:30am 26.9 32.4 24.7 88 1.5 ESE 4 9 2 5 1008.4 - 0.0
01/07:00am 26.2 30.6 24.4 90 1.2 ESE 9 13 5 7 1008.2 - 0.0
01/06:30am 25.5 29.8 24.3 93 0.8 SE 9 13 5 7 1007.6 - 0.0
01/06:00am 25.5 31.0 24.1 92 1.0 N 2 7 1 4 1007.0 1006.9 0.0
01/05:30am 25.8 31.0 24.2 91 1.1 SSW 4 7 2 4 1006.9 - 0.0
01/05:00am 25.9 30.7 24.1 90 1.2 SW 6 9 3 5 1006.8 - 0.0
01/04:30am 26.6 31.3 24.3 87 1.6 N 7 11 4 6 1006.5 - 0.0
01/04:00am 26.6 30.6 24.4 88 1.5 N 11 15 6 8 1006.5 - 0.0
01/03:30am 26.7 31.1 24.4 87 1.6 NNW 9 13 5 7 1006.6 - 0.0
01/03:00am 26.8 30.4 24.3 86 1.7 N 13 19 7 10 1006.6 1006.5 0.0
01/02:30am 26.7 31.2 24.0 85 1.9 N 7 11 4 6 1007.0 - 0.0
01/02:00am 27.2 31.8 24.1 83 2.1 NW 7 13 4 7 1007.0 - 0.0
01/01:30am 27.4 31.2 24.0 82 2.3 W 11 17 6 9 1007.1 - 0.0
01/01:00am 27.8 30.8 24.0 80 2.6 W 15 20 8 11 1007.4 - 0.0
01/12:30am 27.8 31.1 23.8 79 2.8 W 13 19 7 10 1007.6 - 0.0
01/12:00am 27.8 31.1 23.8 79 2.8 WNW 13 19 7 10 1007.9 1007.8 0.0
 
Date/Time
EST
Temp
°C
App
Temp
°C
Dew
Point
Rel
Hum
%
Delta-T
°C
Wind Press
QNH
hPa
Press
MSL
hPa
Rain
since 9 am
mm
Dir
 
Spd
km/h
Gust
km/h
Spd
kts
Gust
kts
31/11:30pm 27.9 30.6 23.5 77 3.0 WNW 15 24 8 13 1007.9 - 0.0
31/11:00pm 28.5 30.4 23.4 74 3.5 W 19 30 10 16 1008.0 - 0.0
31/10:30pm 27.7 31.5 24.1 81 2.5 WNW 11 24 6 13 1008.2 - 0.0
31/10:00pm 26.3 32.3 24.9 92 1.0 N 2 7 1 4 1007.7 - 0.0
31/09:30pm 26.8 33.6 25.6 93 0.8 CALM 0 0 0 0 1007.4 - 0.0
31/09:00pm 26.8 33.5 25.4 92 1.0 CALM 0 0 0 0 1007.2 1007.0 0.0
31/08:30pm 27.2 33.8 25.2 89 1.4 CALM 0 0 0 0 1007.1 - 0.0
31/08:00pm 27.7 34.5 25.5 88 1.5 CALM 0 0 0 0 1007.0 - 0.0
31/07:30pm 27.7 33.6 24.7 84 2.1 N 2 7 1 4 1006.3 - 0.0
31/07:00pm 28.3 32.9 24.7 81 2.5 NNW 9 13 5 7 1006.0 - 0.0
31/06:30pm 29.0 33.5 24.6 77 3.1 NW 9 13 5 7 1005.7 - 0.0
31/06:00pm 29.2 32.9 24.5 76 3.3 N 13 20 7 11 1005.5 1005.4 0.0
31/05:30pm 30.3 32.9 24.0 69 4.4 N 17 22 9 12 1005.4 - 0.0
31/05:00pm 30.7 34.3 24.4 69 4.4 NNW 13 19 7 10 1004.6 - 0.0
31/04:30pm 31.3 35.5 24.7 68 4.6 NNE 11 19 6 10 1004.7 - 0.0
31/04:00pm 31.5 35.6 25.8 72 4.1 NE 15 20 8 11 1004.3 - 0.0
31/03:30pm 30.6 33.8 26.5 79 2.9 NE 22 30 12 16 1004.4 - 0.0
31/03:00pm 29.4 33.9 27.0 87 1.7 NE 17 26 9 14 1004.8 1004.7 0.0
31/02:30pm 29.2 32.1 23.9 73 3.7 ENE 15 22 8 12 1005.3 - 0.0
31/02:00pm 30.9 34.1 24.3 68 4.6 E 15 26 8 14 1005.4 - 0.0
31/01:30pm 31.7 35.6 24.3 65 5.2 E 11 19 6 10 1005.6 - 0.0
31/01:00pm 33.4 35.9 22.5 52 7.5 W 13 19 7 10 1006.0 - 0.0
31/12:30pm 33.8 36.3 23.2 54 7.3 WNW 15 22 8 12 1006.2 - 0.0
31/12:00pm 33.0 36.3 23.9 59 6.4 NW 13 28 7 15 1006.8 1006.7 0.0
31/11:30am 32.5 36.6 24.5 62 5.6 WNW 11 19 6 10 1007.1 - 0.0
31/11:00am 32.4 35.7 23.9 61 5.9 WNW 13 22 7 12 1007.4 - 0.0
31/10:30am 31.6 34.8 23.7 63 5.5 W 13 20 7 11 1007.6 - 0.0
31/10:00am 30.7 33.8 24.1 68 4.6 NW 15 26 8 14 1008.0 - 0.0
31/09:30am 30.0 32.9 23.9 70 4.2 WNW 15 20 8 11 1008.3 - 0.0
31/09:00am 29.8 33.6 24.0 71 4.0 WSW 11 19 6 10 1008.3 1008.2 0.0
31/08:30am 28.6 33.7 25.0 81 2.5 NNW 7 11 4 6 1008.1 - 0.0
31/08:00am 28.0 32.0 25.0 84 2.1 NW 13 17 7 9 1008.0 - 0.0
31/07:30am 27.0 32.0 24.5 86 1.7 NNE 6 11 3 6 1007.6 - 0.0
31/07:00am 27.0 31.3 23.7 82 2.3 W 7 9 4 5 1007.0 - 0.0
31/06:30am 26.7 29.8 23.6 83 2.1 W 13 17 7 9 1006.7 - 0.0
31/06:00am 26.3 30.8 23.6 85 1.9 W 6 13 3 7 1006.6 1006.4 0.0
31/05:30am 26.1 30.6 23.6 86 1.7 W 6 9 3 5 1006.3 - 0.0
31/05:00am 26.3 30.4 24.0 87 1.6 W 9 13 5 7 1006.0 - 0.0
31/04:30am 26.6 29.7 24.1 86 1.7 WNW 15 19 8 10 1005.9 - 0.0
31/04:00am 26.9 30.4 24.2 85 1.9 N 13 20 7 11 1006.1 - 0.0
31/03:30am 26.6 30.9 24.3 87 1.6 N 9 15 5 8 1006.3 - 0.0
31/03:00am 26.4 30.7 24.2 88 1.5 N 9 15 5 8 1006.6 1006.5 0.0
31/02:30am 27.1 30.7 23.8 82 2.3 WNW 11 20 6 11 1006.8 - 0.0
31/02:00am 27.4 30.8 24.0 82 2.3 W 13 19 7 10 1007.0 - 0.0
31/01:30am 27.3 30.4 24.2 83 2.1 W 15 19 8 10 1007.3 - 0.0
31/01:00am 27.4 30.4 24.0 82 2.3 WNW 15 20 8 11 1007.6 - 0.0
31/12:30am 27.6 31.0 24.0 81 2.5 WNW 13 19 7 10 1007.8 - 0.0
31/12:00am 27.8 31.6 24.0 80 2.6 WNW 11 17 6 9 1008.1 1008.0 0.0
 
Date/Time
EST
Temp
°C
App
Temp
°C
Dew
Point
Rel
Hum
%
Delta-T
°C
Wind Press
QNH
hPa
Press
MSL
hPa
Rain
since 9 am
mm
Dir
 
Spd
km/h
Gust
km/h
Spd
kts
Gust
kts
30/11:30pm 28.2 31.5 23.8 77 3.0 WNW 13 20 7 11 1008.3 - 0.0
30/11:00pm 28.6 30.5 23.7 75 3.4 W 20 28 11 15 1008.3 - 0.0
30/10:30pm 28.7 31.4 23.4 73 3.6 W 15 26 8 14 1008.2 - 0.0
30/10:00pm 28.9 30.3 22.9 70 4.1 W 20 30 11 16 1007.7 - 0.0
30/09:30pm 28.7 30.8 23.1 71 3.8 W 17 26 9 14 1007.1 - 0.0
30/09:00pm 28.8 31.3 23.2 71 3.8 W 15 22 8 12 1006.9 1006.7 0.0
30/08:30pm 29.1 31.8 22.8 69 4.3 W 13 22 7 12 1006.3 - 0.0
30/08:00pm 28.7 31.8 22.9 71 4.0 W 11 17 6 9 1006.1 - 0.0
30/07:30pm 27.9 31.7 23.5 77 3.0 NW 9 13 5 7 1006.0 - 0.0
30/07:00pm 27.8 31.2 24.0 80 2.6 NW 13 17 7 9 1005.4 - 0.0
30/06:30pm 28.0 30.8 23.6 77 3.0 NW 15 20 8 11 1005.3 - 0.0
30/06:00pm 28.2 30.8 22.7 72 3.7 NNW 13 24 7 13 1004.8 1004.7 0.0
30/05:30pm 30.2 31.9 23.4 67 4.7 W 20 30 11 16 1004.2 - 0.0
30/05:00pm 31.5 33.2 23.1 61 5.8 WNW 19 24 10 13 1003.7 - 0.0
30/04:30pm 32.4 33.5 23.1 58 6.4 WNW 22 30 12 16 1003.7 - 0.0
30/04:00pm 35.2 36.0 22.5 47 8.8 W 22 30 12 16 1003.4 - 0.0
30/03:30pm 35.5 35.9 19.0 37 10.9 W 15 20 8 11 1003.6 - 0.0
30/03:00pm 35.0 36.5 22.0 46 8.9 W 17 30 9 16 1003.7 1003.6 0.0
30/02:30pm 34.7 35.3 21.4 46 9.0 W 20 28 11 15 1003.9 - 0.0
30/02:00pm 34.7 35.7 22.1 48 8.6 WSW 20 30 11 16 1004.2 - 0.0
30/01:30pm 34.6 36.4 23.6 52 7.7 W 20 32 11 17 1004.6 - 0.0
30/01:00pm 34.1 34.5 22.5 50 8.0 WNW 24 33 13 18 1004.9 - 0.0
30/12:30pm 32.9 35.3 23.0 56 6.8 W 15 30 8 16 1005.5 - 0.0
30/12:00pm 32.6 34.4 23.3 58 6.4 W 19 26 10 14 1005.8 1005.8 0.0
30/11:30am 32.9 35.6 24.1 60 6.2 W 17 24 9 13 1006.3 - 0.0
30/11:00am 32.2 35.6 25.3 67 4.9 WSW 17 26 9 14 1006.5 - 0.0
30/10:30am 31.4 35.0 24.3 66 5.0 W 13 19 7 10 1006.8 - 0.0
30/10:00am 30.5 33.4 24.4 70 4.3 NW 17 24 9 13 1007.1 - 0.0
30/09:30am 30.3 33.8 24.9 73 3.8 NNW 15 19 8 10 1007.0 - 0.0
30/09:00am 29.8 34.4 24.7 74 3.6 NNW 9 15 5 8 1006.9 1006.8 0.0
30/08:30am 28.0 32.5 24.0 79 2.8 NNW 7 11 4 6 1006.7 - 0.0
30/08:00am 27.3 31.7 24.4 84 2.0 NNW 9 13 5 7 1006.6 - 0.0
30/07:30am 26.5 30.8 24.2 87 1.6 NNW 9 15 5 8 1006.4 - 0.0
30/07:00am 25.8 30.9 24.0 90 1.2 N 4 7 2 4 1006.2 - 0.0
30/06:30am 25.3 31.0 23.7 91 1.1 CALM 0 2 0 1 1006.1 - 0.0
30/06:00am 25.3 29.3 23.7 91 1.1 NNW 9 13 5 7 1005.6 1005.5 0.0
30/05:30am 25.3 30.0 23.9 92 1.0 NW 6 13 3 7 1005.3 - 0.0
30/05:00am 25.7 30.0 23.7 89 1.4 N 7 11 4 6 1005.3 - 0.0
30/04:30am 25.9 30.2 23.6 87 1.6 NNW 7 13 4 7 1005.2 - 0.0
30/04:00am 26.0 30.4 23.5 86 1.7 WNW 6 9 3 5 1005.2 - 0.0
30/03:30am 25.9 30.3 23.8 88 1.4 WNW 7 13 4 7 1005.3 - 0.0
30/03:00am 25.6 30.1 24.0 91 1.1 N 7 9 4 5 1005.4 1005.3 0.0
30/02:30am 25.4 30.5 24.0 92 1.0 N 4 6 2 3 1005.6 - 0.0
30/02:00am 26.1 32.0 24.1 89 1.4 CALM 0 0 0 0 1005.9 - 0.0
30/01:30am 25.9 29.9 23.8 88 1.4 NNW 9 15 5 8 1006.1 - 0.0
30/01:00am 25.8 29.9 24.0 90 1.2 NNW 9 11 5 6 1006.4 - 0.0
30/12:30am 26.0 31.2 24.2 90 1.2 NNW 4 7 2 4 1006.7 - 0.0
30/12:00am 26.0 30.3 24.2 90 1.2 NW 9 13 5 7 1006.9 1006.8 0.0
 
Date/Time
EST
Temp
°C
App
Temp
°C
Dew
Point
Rel
Hum
%
Delta-T
°C
Wind Press
QNH
hPa
Press
MSL
hPa
Rain
since 9 am
mm
Dir
 
Spd
km/h
Gust
km/h
Spd
kts
Gust
kts
29/11:30pm 25.8 30.7 24.4 92 1.0 WNW 6 7 3 4 1007.2 - 0.0

Other Formats:

Comma delimited format used in spreadsheet applications
http://www.bom.gov.au/fwo/IDQ60801/IDQ60801.94186.axf

JavaScript Object Notation format (JSON) in row-major order
http://www.bom.gov.au/fwo/IDQ60801/IDQ60801.94186.json